Kairyu — JD2981 — position and weather

sailwx.info

Track history (hours):
 
Tides and Currents Weather Stations Pressure Air Temp Water Temp Dewpoint Dewpoint Depression Visibility Wind Speed Wind Dir Waves Ship Positions

Kairyu

Last reported at 2017-Sep-20 13:31 UTC. Time now 2017-Sep-20 18:19 UTC.
Position N 34°59' E 139°32'.

Length 104 m; draft 6.5 m.

Type: Tanker. MMSI: 431001061.

Date/timePositionNaut miles runAvg speedWind from/ knotsBaromVisibWave heightAir tempDewpointWater temp
2017-Sep-20 13:31N 34°59' E 139°32'111.6
2017-Sep-20 13:28N 34°59' E 139°33'613.2
2017-Sep-20 13:00N 35°03' E 139°39'713.8
2017-Sep-20 12:30N 35°09' E 139°45'612.9
2017-Sep-20 12:00N 35°15' E 139°46'612.5
2017-Sep-20 11:30N 35°20' E 139°43'612.7
2017-Sep-20 11:00N 35°26' E 139°45'4 8.7
2017-Sep-20 10:30N 35°30' E 139°46'1 1.4
2017-Sep-20 10:00N 35°30' E 139°45'0 0.0
2017-Sep-20 09:30N 35°30' E 139°45'0 0.0
2017-Sep-20 09:00N 35°30' E 139°45'0 0.0
2017-Sep-20 08:30N 35°30' E 139°45'0 0.0
2017-Sep-20 08:00N 35°30' E 139°45'0 0.0
2017-Sep-20 07:30N 35°30' E 139°45'0 0.0
2017-Sep-20 07:00N 35°30' E 139°45'0 0.0
2017-Sep-20 06:30N 35°30' E 139°45'0 0.2
2017-Sep-20 06:00N 35°30' E 139°45'3 6.7
2017-Sep-20 05:30N 35°28' E 139°43'4 7.7
2017-Sep-20 05:00N 35°24' E 139°45'0 0.3
2017-Sep-20 04:29N 35°24' E 139°45'0 0.0
2017-Sep-20 03:59N 35°24' E 139°45'0 0.1
2017-Sep-20 03:29N 35°24' E 139°45'0 0.0
2017-Sep-20 02:59N 35°24' E 139°45'0 0.1
2017-Sep-20 02:29N 35°24' E 139°45'0 0.0
2017-Sep-20 01:59N 35°24' E 139°45'0 0.0
2017-Sep-20 01:23N 35°24' E 139°45'0 0.0
2017-Sep-20 00:59N 35°24' E 139°45'0 0.0
2017-Sep-20 00:29N 35°24' E 139°45'0 0.1
2017-Sep-20 00:00N 35°24' E 139°45'5 9.1
2017-Sep-19 23:30N 35°20' E 139°43'611.8
2017-Sep-19 23:00N 35°15' E 139°47'613.0
2017-Sep-19 22:30N 35°08' E 139°46'713.6
2017-Sep-19 22:00N 35°03' E 139°42'714.8
2017-Sep-19 21:30N 34°58' E 139°34'  
2017-Sep-13 11:35N 34°59' E 139°32'112.7
2017-Sep-13 11:30N 34°60' E 139°33'713.8
2017-Sep-13 11:00N 35°04' E 139°40'713.8
2017-Sep-13 10:30N 35°10' E 139°44'612.6
2017-Sep-13 10:00N 35°16' E 139°46'612.0
2017-Sep-13 09:30N 35°21' E 139°42'612.5
2017-Sep-13 09:00N 35°26' E 139°46'4 7.8
2017-Sep-13 08:30N 35°30' E 139°45'1 2.6
2017-Sep-13 08:00N 35°30' E 139°44'0 0.0
2017-Sep-13 07:30N 35°30' E 139°44'0 0.0
2017-Sep-13 07:00N 35°30' E 139°44'0 0.0
2017-Sep-13 06:28N 35°30' E 139°44'0 0.0
2017-Sep-13 05:58N 35°30' E 139°44'0 0.0
2017-Sep-13 05:28N 35°30' E 139°44'0 0.0
2017-Sep-13 04:58N 35°30' E 139°44'0 0.0
2017-Sep-13 04:28N 35°30' E 139°44'0 0.0
2017-Sep-13 03:58N 35°30' E 139°44'0 0.0
2017-Sep-13 03:28N 35°30' E 139°44'0 0.0
2017-Sep-13 02:58N 35°30' E 139°44'0 0.0
2017-Sep-13 02:25N 35°30' E 139°44'0 0.0
2017-Sep-13 01:58N 35°30' E 139°44'0 0.0
2017-Sep-13 01:28N 35°30' E 139°44'0 0.0
2017-Sep-13 00:58N 35°30' E 139°44'0 0.0
2017-Sep-13 00:28N 35°30' E 139°44'0 0.0
2017-Sep-12 23:58N 35°30' E 139°44'0 0.1
2017-Sep-12 23:30N 35°30' E 139°44'1 2.4
2017-Sep-12 23:00N 35°29' E 139°42'3 5.1
2017-Sep-12 22:30N 35°28' E 139°45'1 1.6
2017-Sep-12 21:52N 35°28' E 139°46'0 0.0
2017-Sep-12 21:25N 35°28' E 139°46'0 0.0
2017-Sep-12 20:55N 35°28' E 139°46'0 0.0
2017-Sep-12 20:19N 35°28' E 139°46'0 0.0
2017-Sep-12 19:55N 35°28' E 139°46'0 0.0
2017-Sep-12 19:25N 35°28' E 139°46'0 0.0
2017-Sep-12 18:58N 35°28' E 139°46'0 0.0
2017-Sep-12 18:28N 35°28' E 139°46'0 0.0
2017-Sep-12 17:58N 35°28' E 139°46'0 0.0
2017-Sep-12 17:25N 35°28' E 139°46'0 0.0
2017-Sep-12 16:55N 35°28' E 139°46'0 0.2
2017-Sep-12 16:28N 35°28' E 139°46'2 3.3
2017-Sep-12 16:00N 35°28' E 139°48'912.3
2017-Sep-12 15:15N 35°30' E 139°59'2 6.5
2017-Sep-12 15:00N 35°29' E 140°01'0 0.1
2017-Sep-12 14:31N 35°29' E 140°01'0 0.0
2017-Sep-12 14:00N 35°29' E 140°01'0 0.0
2017-Sep-12 13:30N 35°29' E 140°01'0 0.0
2017-Sep-12 13:00N 35°29' E 140°01'0 0.0
2017-Sep-12 12:30N 35°29' E 140°01'0 0.0
2017-Sep-12 12:00N 35°29' E 140°01'0 0.0
2017-Sep-12 11:30N 35°29' E 140°01'0 0.0
2017-Sep-12 11:00N 35°29' E 140°01'0 0.0
2017-Sep-12 10:31N 35°29' E 140°01'0 0.0
2017-Sep-12 10:00N 35°29' E 140°01'0 0.0
2017-Sep-12 09:30N 35°29' E 140°01'0 0.0
2017-Sep-12 09:01N 35°29' E 140°01'0 0.0
2017-Sep-12 08:30N 35°29' E 140°01'0 0.0
2017-Sep-12 08:00N 35°29' E 140°01'0 0.0
2017-Sep-12 07:30N 35°29' E 140°01'0 0.1
2017-Sep-12 06:58N 35°29' E 140°01'4 7.9
2017-Sep-12 06:28N 35°30' E 139°56'613.5
2017-Sep-12 06:00N 35°30' E 139°48'3 5.1
2017-Sep-12 05:31N 35°30' E 139°45'0 0.0
2017-Sep-12 05:01N 35°30' E 139°45'0 0.0
2017-Sep-12 04:30N 35°30' E 139°45'0 0.0
2017-Sep-12 04:01N 35°30' E 139°45'0 0.0
2017-Sep-12 03:29N 35°30' E 139°45'0 0.0
2017-Sep-12 02:59N 35°30' E 139°45'0 0.0
2017-Sep-12 02:29N 35°30' E 139°45'0 0.0
2017-Sep-12 01:59N 35°30' E 139°45'0 0.0
2017-Sep-12 01:29N 35°30' E 139°45'0 0.1
2017-Sep-12 01:00N 35°30' E 139°45'3 6.4
2017-Sep-12 00:31N 35°28' E 139°42'4 7.3
2017-Sep-12 00:01N 35°25' E 139°45'2 3.6
2017-Sep-11 23:30N 35°24' E 139°45'0 0.0
2017-Sep-11 23:00N 35°24' E 139°45'0 0.0
2017-Sep-11 22:31N 35°24' E 139°45'0 0.0
2017-Sep-11 22:00N 35°24' E 139°45'0 0.0
2017-Sep-11 21:30N 35°24' E 139°45'0 0.0
2017-Sep-11 21:00N 35°24' E 139°45'1 1.6
2017-Sep-11 20:30N 35°23' E 139°44'611.5
2017-Sep-11 20:00N 35°17' E 139°45'611.5
2017-Sep-11 19:30N 35°12' E 139°47'713.6
2017-Sep-11 19:00N 35°05' E 139°45'713.5
2017-Sep-11 18:30N 35°01' E 139°38'  
Track history (hours):
 
Tides and Currents Weather Stations Pressure Air Temp Water Temp Dewpoint Dewpoint Depression Visibility Wind Speed Wind Dir Waves Ship Positions

Kairyu

Last reported at 2017-Sep-20 13:31 UTC. Time now 2017-Sep-20 18:19 UTC.
Position N 34°59' E 139°32'.

Length 104 m; draft 6.5 m.

Type: Tanker. MMSI: 431001061.

Date/timePositionNaut miles runAvg speedWind from/ knotsBaromVisibWave heightAir tempDewpointWater temp
2017-Sep-20 13:31N 34°59' E 139°32'111.6
2017-Sep-20 13:28N 34°59' E 139°33'613.2
2017-Sep-20 13:00N 35°03' E 139°39'713.8
2017-Sep-20 12:30N 35°09' E 139°45'612.9
2017-Sep-20 12:00N 35°15' E 139°46'612.5
2017-Sep-20 11:30N 35°20' E 139°43'612.7
2017-Sep-20 11:00N 35°26' E 139°45'4 8.7
2017-Sep-20 10:30N 35°30' E 139°46'1 1.4
2017-Sep-20 10:00N 35°30' E 139°45'0 0.0
2017-Sep-20 09:30N 35°30' E 139°45'0 0.0
2017-Sep-20 09:00N 35°30' E 139°45'0 0.0
2017-Sep-20 08:30N 35°30' E 139°45'0 0.0
2017-Sep-20 08:00N 35°30' E 139°45'0 0.0
2017-Sep-20 07:30N 35°30' E 139°45'0 0.0
2017-Sep-20 07:00N 35°30' E 139°45'0 0.0
2017-Sep-20 06:30N 35°30' E 139°45'0 0.2
2017-Sep-20 06:00N 35°30' E 139°45'3 6.7
2017-Sep-20 05:30N 35°28' E 139°43'4 7.7
2017-Sep-20 05:00N 35°24' E 139°45'0 0.3
2017-Sep-20 04:29N 35°24' E 139°45'0 0.0
2017-Sep-20 03:59N 35°24' E 139°45'0 0.1
2017-Sep-20 03:29N 35°24' E 139°45'0 0.0
2017-Sep-20 02:59N 35°24' E 139°45'0 0.1
2017-Sep-20 02:29N 35°24' E 139°45'0 0.0
2017-Sep-20 01:59N 35°24' E 139°45'0 0.0
2017-Sep-20 01:23N 35°24' E 139°45'0 0.0
2017-Sep-20 00:59N 35°24' E 139°45'0 0.0
2017-Sep-20 00:29N 35°24' E 139°45'0 0.1
2017-Sep-20 00:00N 35°24' E 139°45'5 9.1
2017-Sep-19 23:30N 35°20' E 139°43'611.8
2017-Sep-19 23:00N 35°15' E 139°47'613.0
2017-Sep-19 22:30N 35°08' E 139°46'713.6
2017-Sep-19 22:00N 35°03' E 139°42'714.8
2017-Sep-19 21:30N 34°58' E 139°34'  
2017-Sep-13 11:35N 34°59' E 139°32'112.7
2017-Sep-13 11:30N 34°60' E 139°33'713.8
2017-Sep-13 11:00N 35°04' E 139°40'713.8
2017-Sep-13 10:30N 35°10' E 139°44'612.6
2017-Sep-13 10:00N 35°16' E 139°46'612.0
2017-Sep-13 09:30N 35°21' E 139°42'612.5
2017-Sep-13 09:00N 35°26' E 139°46'4 7.8
2017-Sep-13 08:30N 35°30' E 139°45'1 2.6
2017-Sep-13 08:00N 35°30' E 139°44'0 0.0
2017-Sep-13 07:30N 35°30' E 139°44'0 0.0
2017-Sep-13 07:00N 35°30' E 139°44'0 0.0
2017-Sep-13 06:28N 35°30' E 139°44'0 0.0
2017-Sep-13 05:58N 35°30' E 139°44'0 0.0
2017-Sep-13 05:28N 35°30' E 139°44'0 0.0
2017-Sep-13 04:58N 35°30' E 139°44'0 0.0
2017-Sep-13 04:28N 35°30' E 139°44'0 0.0
2017-Sep-13 03:58N 35°30' E 139°44'0 0.0
2017-Sep-13 03:28N 35°30' E 139°44'0 0.0
2017-Sep-13 02:58N 35°30' E 139°44'0 0.0
2017-Sep-13 02:25N 35°30' E 139°44'0 0.0
2017-Sep-13 01:58N 35°30' E 139°44'0 0.0
2017-Sep-13 01:28N 35°30' E 139°44'0 0.0
2017-Sep-13 00:58N 35°30' E 139°44'0 0.0
2017-Sep-13 00:28N 35°30' E 139°44'0 0.0
2017-Sep-12 23:58N 35°30' E 139°44'0 0.1
2017-Sep-12 23:30N 35°30' E 139°44'1 2.4
2017-Sep-12 23:00N 35°29' E 139°42'3 5.1
2017-Sep-12 22:30N 35°28' E 139°45'1 1.6
2017-Sep-12 21:52N 35°28' E 139°46'0 0.0
2017-Sep-12 21:25N 35°28' E 139°46'0 0.0
2017-Sep-12 20:55N 35°28' E 139°46'0 0.0
2017-Sep-12 20:19N 35°28' E 139°46'0 0.0
2017-Sep-12 19:55N 35°28' E 139°46'0 0.0
2017-Sep-12 19:25N 35°28' E 139°46'0 0.0
2017-Sep-12 18:58N 35°28' E 139°46'0 0.0
2017-Sep-12 18:28N 35°28' E 139°46'0 0.0
2017-Sep-12 17:58N 35°28' E 139°46'0 0.0
2017-Sep-12 17:25N 35°28' E 139°46'0 0.0
2017-Sep-12 16:55N 35°28' E 139°46'0 0.2
2017-Sep-12 16:28N 35°28' E 139°46'2 3.3
2017-Sep-12 16:00N 35°28' E 139°48'912.3
2017-Sep-12 15:15N 35°30' E 139°59'2 6.5
2017-Sep-12 15:00N 35°29' E 140°01'0 0.1
2017-Sep-12 14:31N 35°29' E 140°01'0 0.0
2017-Sep-12 14:00N 35°29' E 140°01'0 0.0
2017-Sep-12 13:30N 35°29' E 140°01'0 0.0
2017-Sep-12 13:00N 35°29' E 140°01'0 0.0
2017-Sep-12 12:30N 35°29' E 140°01'0 0.0
2017-Sep-12 12:00N 35°29' E 140°01'0 0.0
2017-Sep-12 11:30N 35°29' E 140°01'0 0.0
2017-Sep-12 11:00N 35°29' E 140°01'0 0.0
2017-Sep-12 10:31N 35°29' E 140°01'0 0.0
2017-Sep-12 10:00N 35°29' E 140°01'0 0.0
2017-Sep-12 09:30N 35°29' E 140°01'0 0.0
2017-Sep-12 09:01N 35°29' E 140°01'0 0.0
2017-Sep-12 08:30N 35°29' E 140°01'0 0.0
2017-Sep-12 08:00N 35°29' E 140°01'0 0.0
2017-Sep-12 07:30N 35°29' E 140°01'0 0.1
2017-Sep-12 06:58N 35°29' E 140°01'4 7.9
2017-Sep-12 06:28N 35°30' E 139°56'613.5
2017-Sep-12 06:00N 35°30' E 139°48'3 5.1
2017-Sep-12 05:31N 35°30' E 139°45'0 0.0
2017-Sep-12 05:01N 35°30' E 139°45'0 0.0
2017-Sep-12 04:30N 35°30' E 139°45'0 0.0
2017-Sep-12 04:01N 35°30' E 139°45'0 0.0
2017-Sep-12 03:29N 35°30' E 139°45'0 0.0
2017-Sep-12 02:59N 35°30' E 139°45'0 0.0
2017-Sep-12 02:29N 35°30' E 139°45'0 0.0
2017-Sep-12 01:59N 35°30' E 139°45'0 0.0
2017-Sep-12 01:29N 35°30' E 139°45'0 0.1
2017-Sep-12 01:00N 35°30' E 139°45'3 6.4
2017-Sep-12 00:31N 35°28' E 139°42'4 7.3
2017-Sep-12 00:01N 35°25' E 139°45'2 3.6
2017-Sep-11 23:30N 35°24' E 139°45'0 0.0
2017-Sep-11 23:00N 35°24' E 139°45'0 0.0
2017-Sep-11 22:31N 35°24' E 139°45'0 0.0
2017-Sep-11 22:00N 35°24' E 139°45'0 0.0
2017-Sep-11 21:30N 35°24' E 139°45'0 0.0
2017-Sep-11 21:00N 35°24' E 139°45'1 1.6
2017-Sep-11 20:30N 35°23' E 139°44'611.5
2017-Sep-11 20:00N 35°17' E 139°45'611.5
2017-Sep-11 19:30N 35°12' E 139°47'713.6
2017-Sep-11 19:00N 35°05' E 139°45'713.5
2017-Sep-11 18:30N 35°01' E 139°38'  

Dump ship's entire track history